^^
Station Historical Data
Daily Summary for February 11, 2017 Units:  English    Metric   Both
« Previous Day
Next Day »
Daily Weekly Monthly Yearly Custom
  High: Low: Average:
Temperature: 42.4 °F 25.5 °F 34.3 °F
Dew Point: 29.1 °F 18.8 °F 25.5 °F
Humidity: 85% 54% 71%
Wind Speed: 3.0mph 0.0mph 0.2mph
Wind Gust: 6.0mph - -
Wind- - SW
Pressure: 30.13 in 29.91 in -
Precipitation: 0.04 in    
Historical Graphs
 
 
Tabular Data for February 11, 2017
Time Temperature Dew Point Pressure Wind Wind Speed Wind Gust Humidity Rainfall Rate (Hourly) Conditions
00:00 25.6 °F 18.8 °F 30.13 in Calm   1.0 mph 75% 0.00 in OVC
00:10 25.6 °F 19.1 °F 30.13 in Calm     76% 0.00 in OVC
00:20 25.5 °F 19.0 °F 30.12 in Calm   1.0 mph 76% 0.00 in OVC
00:30 25.5 °F 19.3 °F 30.11 in Calm   1.0 mph 77% 0.00 in OVC
00:40 25.5 °F 19.3 °F 30.11 in Calm     77% 0.00 in OVC
00:50 25.5 °F 19.3 °F 30.10 in Calm   1.0 mph 77% 0.00 in OVC
01:00 25.6 °F 19.7 °F 30.10 in Calm   1.0 mph 78% 0.00 in OVC
01:10 25.7 °F 19.8 °F 30.09 in Calm   1.0 mph 78% 0.00 in OVC
01:20 25.7 °F 19.8 °F 30.09 in Calm   1.0 mph 78% 0.00 in OVC
01:30 25.8 °F 20.2 °F 30.09 in Calm   2.0 mph 79% 0.00 in OVC
01:40 26.0 °F 20.4 °F 30.09 in Calm   3.0 mph 79% 0.00 in OVC
01:50 26.2 °F 20.6 °F 30.10 in Calm   2.0 mph 79% 0.00 in OVC
02:00 26.3 °F 20.7 °F 30.09 in Calm   2.0 mph 79% 0.00 in OVC
02:10 26.3 °F 20.4 °F 30.09 in Calm   2.0 mph 78% 0.00 in OVC
02:20 26.4 °F 20.7 °F 30.09 in Calm   2.0 mph 79% 0.00 in OVC
02:30 26.4 °F 20.8 °F 30.07 in Calm   2.0 mph 79% 0.00 in OVC
02:40 26.4 °F 20.8 °F 30.06 in Calm   2.0 mph 79% 0.00 in OVC
02:50 26.5 °F 20.9 °F 30.05 in Calm   3.0 mph 79% 0.00 in OVC
03:00 26.6 °F 21.0 °F 30.04 in Calm   2.0 mph 79% 0.00 in OVC
03:10 26.8 °F 21.5 °F 30.03 in Calm   3.0 mph 80% 0.00 in -SN
03:20 26.9 °F 21.6 °F 30.03 in NNE 1.0 mph 4.0 mph 80% 0.00 in -SN
03:40 27.3 °F 22.2 °F 30.02 in Calm   4.0 mph 81% 0.00 in -SN
03:50 27.4 °F 22.3 °F 30.02 in Calm   4.0 mph 81% 0.00 in -SN
04:00 27.5 °F 22.4 °F 30.01 in Calm   4.0 mph 81% 0.00 in -SN
04:10 27.7 °F 22.6 °F 30.01 in Calm   2.0 mph 81% 0.00 in OVC
04:20 27.8 °F 23.0 °F 30.01 in Calm   3.0 mph 82% 0.00 in OVC
04:30 28.0 °F 23.2 °F 30.01 in Calm   2.0 mph 82% 0.00 in OVC
04:40 28.2 °F 23.4 °F 30.01 in Calm   1.0 mph 82% 0.00 in OVC
04:50 28.2 °F 23.4 °F 30.01 in Calm   1.0 mph 82% 0.00 in OVC
05:00 28.3 °F 23.5 °F 30.01 in Calm   1.0 mph 82% 0.00 in OVC
05:10 28.5 °F 24.3 °F 29.99 in Calm   1.0 mph 84% 0.00 in OVC
05:20 28.3 °F 23.8 °F 29.99 in Calm   1.0 mph 83% 0.00 in OVC
05:30 28.3 °F 23.8 °F 29.99 in Calm   1.0 mph 83% 0.00 in OVC
05:40 28.5 °F 24.0 °F 29.99 in Calm     83% 0.00 in OVC
05:50 28.8 °F 24.5 °F 29.98 in Calm   1.0 mph 84% 0.00 in OVC
06:00 28.6 °F 24.4 °F 30.00 in Calm   1.0 mph 84% 0.00 in OVC
06:10 28.6 °F 24.4 °F 30.00 in Calm   1.0 mph 84% 0.00 in OVC
06:20 28.8 °F 24.6 °F 29.99 in Calm   1.0 mph 84% 0.00 in OVC
06:30 28.8 °F 24.3 °F 29.99 in Calm   1.0 mph 83% 0.00 in OVC
06:40 28.7 °F 24.2 °F 29.97 in Calm   1.0 mph 83% 0.00 in OVC
06:50 28.6 °F 24.4 °F 29.97 in Calm   1.0 mph 84% 0.00 in OVC
07:00 28.8 °F 24.5 °F 29.98 in Calm     84% 0.00 in OVC
07:10 28.9 °F 25.0 °F 29.98 in Calm     85% 0.00 in OVC
07:20 29.0 °F 24.8 °F 29.97 in Calm   1.0 mph 84% 0.00 in OVC
07:30 29.2 °F 25.0 °F 29.98 in Calm     84% 0.00 in OVC
07:40 29.3 °F 24.8 °F 29.98 in Calm     83% 0.00 in OVC
07:50 29.6 °F 25.1 °F 29.98 in Calm     83% 0.00 in OVC
08:00 29.7 °F 25.2 °F 29.98 in Calm     83% 0.00 in OVC
08:10 29.8 °F 25.3 °F 29.98 in Calm     83% 0.00 in BKN
08:20 30.1 °F 25.6 °F 29.98 in Calm     83% 0.00 in BKN
08:30 30.2 °F 25.4 °F 29.99 in Calm   1.0 mph 82% 0.00 in BKN
08:40 30.5 °F 25.7 °F 29.98 in Calm     82% 0.00 in BKN
08:50 31.3 °F 25.8 °F 29.98 in Calm   1.0 mph 80% 0.00 in BKN
09:00 31.9 °F 26.8 °F 29.98 in Calm     81% 0.00 in BKN
09:10 32.1 °F 26.3 °F 29.98 in Calm   1.0 mph 79% 0.00 in BKN
09:20 32.3 °F 26.5 °F 29.98 in Calm   1.0 mph 79% 0.00 in BKN
09:30 33.6 °F 27.8 °F 29.98 in Calm   1.0 mph 79% 0.00 in BKN
09:40 34.0 °F 26.9 °F 29.98 in Calm   1.0 mph 75% 0.00 in BKN
09:50 34.4 °F 26.6 °F 29.98 in Calm   2.0 mph 73% 0.00 in BKN
10:00 34.3 °F 26.5 °F 29.98 in SW 1.0 mph 4.0 mph 73% 0.00 in BKN
10:10 34.3 °F 26.5 °F 29.98 in Calm   3.0 mph 73% 0.00 in BKN
10:20 34.5 °F 26.7 °F 29.98 in SW 1.0 mph 3.0 mph 73% 0.00 in BKN
10:30 34.5 °F 26.4 °F 29.97 in SSW 1.0 mph 4.0 mph 72% 0.00 in BKN
10:40 34.6 °F 26.5 °F 29.98 in SW 2.0 mph 4.0 mph 72% 0.00 in BKN
10:50 34.3 °F 26.5 °F 29.98 in WSW 1.0 mph 5.0 mph 73% 0.00 in BKN
11:00 34.9 °F 27.2 °F 29.97 in SW 1.0 mph 4.0 mph 73% 0.00 in BKN
11:10 35.3 °F 26.5 °F 29.97 in SW 1.0 mph 4.0 mph 70% 0.00 in BKN
11:20 35.9 °F 26.4 °F 29.96 in SW 1.0 mph 4.0 mph 68% 0.00 in BKN
11:30 36.1 °F 26.2 °F 29.96 in Calm   3.0 mph 67% 0.00 in BKN
11:40 36.0 °F 25.7 °F 29.96 in West 1.0 mph 4.0 mph 66% 0.00 in BKN
11:50 36.3 °F 25.7 °F 29.97 in SW 2.0 mph 4.0 mph 65% 0.00 in BKN
12:00 37.3 °F 26.6 °F 29.95 in SW 2.0 mph 4.0 mph 65% 0.00 in BKN
12:10 37.2 °F 25.8 °F 29.95 in WSW 2.0 mph 6.0 mph 63% 0.01 in RA
12:20 37.9 °F 26.8 °F 29.95 in Calm   6.0 mph 64% 0.00 in BKN
12:30 38.8 °F 26.9 °F 29.95 in Calm   3.0 mph 62% 0.01 in RA
12:40 39.2 °F 26.9 °F 29.95 in Calm   3.0 mph 61% 0.00 in BKN
12:50 39.9 °F 26.3 °F 29.93 in SSW 3.0 mph 4.0 mph 58% 0.01 in RA
13:00 40.0 °F 26.4 °F 29.94 in Calm   3.0 mph 58% 0.00 in BKN
13:10 39.7 °F 25.7 °F 29.93 in Calm   4.0 mph 57% 0.01 in RA
13:20 40.4 °F 26.8 °F 29.92 in Calm   1.0 mph 58% 0.00 in SCT
13:30 41.3 °F 27.2 °F 29.91 in Calm   1.0 mph 57% 0.00 in SCT
13:40 42.1 °F 27.1 °F 29.91 in Calm   1.0 mph 55% 0.00 in SCT
13:50 41.6 °F 26.2 °F 29.91 in SW 1.0 mph 2.0 mph 54% 0.00 in SCT
14:00 41.3 °F 26.3 °F 29.92 in Calm   2.0 mph 55% 0.00 in SCT
14:10 41.3 °F 27.2 °F 29.92 in Calm   2.0 mph 57% 0.00 in BKN
14:20 42.0 °F 27.0 °F 29.92 in Calm   2.0 mph 55% 0.00 in BKN
14:30 41.6 °F 27.9 °F 29.93 in WNW 1.0 mph 2.0 mph 58% 0.00 in BKN
14:40 40.6 °F 27.4 °F 29.94 in Calm   2.0 mph 59% 0.00 in BKN
14:50 40.7 °F 27.9 °F 29.94 in Calm   1.0 mph 60% 0.00 in BKN
15:00 41.5 °F 27.8 °F 29.95 in NNW 1.0 mph 2.0 mph 58% 0.00 in BKN
15:10 41.7 °F 27.1 °F 29.95 in Calm   3.0 mph 56% 0.00 in SCT
15:20 42.3 °F 28.2 °F 29.96 in Calm   2.0 mph 57% 0.00 in SCT
15:30 42.4 °F 27.8 °F 29.97 in NNW 1.0 mph 4.0 mph 56% 0.00 in SCT
15:40 42.2 °F 28.0 °F 29.97 in Calm   2.0 mph 57% 0.00 in SCT
15:50 41.8 °F 27.7 °F 29.98 in Calm   2.0 mph 57% 0.00 in SCT
16:00 41.8 °F 27.7 °F 29.99 in Calm   1.0 mph 57% 0.00 in SCT
16:10 42.0 °F 29.1 °F 29.98 in Calm   1.0 mph 60% 0.00 in BKN
16:20 42.2 °F 28.9 °F 29.98 in Calm   1.0 mph 59% 0.00 in BKN
16:30 41.8 °F 28.5 °F 29.98 in Calm   1.0 mph 59% 0.00 in BKN
16:40 41.7 °F 28.4 °F 29.98 in Calm     59% 0.00 in BKN
16:50 41.4 °F 28.9 °F 29.99 in Calm     61% 0.00 in BKN
17:10 41.0 °F 26.9 °F 30.00 in Calm     57% 0.00 in BKN
17:20 40.4 °F 27.2 °F 30.00 in Calm     59% 0.00 in BKN
17:30 39.9 °F 27.5 °F 30.00 in Calm     61% 0.00 in BKN
17:40 39.7 °F 26.9 °F 30.00 in Calm     60% 0.00 in BKN
17:50 38.8 °F 27.3 °F 30.01 in Calm     63% 0.00 in BKN
18:00 38.7 °F 26.8 °F 30.01 in Calm   1.0 mph 62% 0.00 in BKN
18:10 38.8 °F 26.5 °F 30.01 in Calm   1.0 mph 61% 0.00 in SCT
18:20 38.5 °F 25.8 °F 30.02 in Calm   1.0 mph 60% 0.00 in SCT
18:30 39.0 °F 26.7 °F 30.03 in Calm   1.0 mph 61% 0.00 in SCT
18:40 39.1 °F 27.9 °F 30.03 in Calm   1.0 mph 64% 0.00 in SCT
18:50 37.7 °F 27.7 °F 30.03 in Calm     67% 0.00 in SCT
19:00 36.9 °F 27.7 °F 30.04 in Calm     69% 0.00 in SCT
19:10 36.7 °F 28.1 °F 30.04 in Calm     71% 0.00 in CLR
19:20 37.4 °F 28.2 °F 30.05 in Calm   1.0 mph 69% 0.00 in CLR
19:30 39.2 °F 27.6 °F 30.06 in Calm   1.0 mph 63% 0.00 in CLR
19:40 39.8 °F 27.9 °F 30.05 in Calm   1.0 mph 62% 0.00 in CLR
19:50 39.5 °F 27.5 °F 30.06 in Calm   1.0 mph 62% 0.00 in CLR
20:00 40.3 °F 27.9 °F 30.06 in NNE 1.0 mph 2.0 mph 61% 0.00 in CLR
20:10 41.1 °F 28.3 °F 30.06 in Calm   2.0 mph 60% 0.00 in CLR
20:20 41.2 °F 28.3 °F 30.07 in Calm   1.0 mph 60% 0.00 in CLR
20:30 40.9 °F 28.5 °F 30.08 in Calm   1.0 mph 61% 0.00 in CLR
20:40 40.0 °F 28.0 °F 30.08 in Calm     62% 0.00 in CLR
20:50 39.3 °F 27.8 °F 30.08 in Calm     63% 0.00 in CLR
21:00 38.9 °F 27.8 °F 30.09 in Calm   1.0 mph 64% 0.00 in CLR
21:10 38.9 °F 28.1 °F 30.09 in Calm   1.0 mph 65% 0.00 in CLR
21:20 38.9 °F 27.8 °F 30.08 in Calm     64% 0.00 in CLR
21:30 38.0 °F 27.6 °F 30.08 in Calm     66% 0.00 in CLR
21:40 37.9 °F 27.2 °F 30.09 in Calm     65% 0.00 in CLR
21:50 37.5 °F 28.2 °F 30.09 in Calm     69% 0.00 in CLR
22:00 37.7 °F 27.0 °F 30.09 in Calm   1.0 mph 65% 0.00 in CLR
22:10 37.4 °F 27.0 °F 30.09 in Calm   1.0 mph 66% 0.00 in CLR
22:20 36.8 °F 26.9 °F 30.10 in Calm     67% 0.00 in CLR
22:30 36.7 °F 27.1 °F 30.10 in Calm     68% 0.00 in CLR
22:40 36.5 °F 26.9 °F 30.10 in Calm     68% 0.00 in CLR
22:50 35.9 °F 27.1 °F 30.10 in Calm     70% 0.00 in CLR
23:00 35.3 °F 27.2 °F 30.10 in Calm     72% 0.00 in CLR
23:10 35.9 °F 27.4 °F 30.11 in Calm   1.0 mph 71% 0.00 in CLR
23:20 34.8 °F 27.4 °F 30.11 in Calm     74% 0.00 in CLR
23:30 34.5 °F 27.3 °F 30.11 in Calm     75% 0.00 in CLR
23:40 34.1 °F 27.4 °F 30.12 in Calm     76% 0.00 in CLR
23:50 33.5 °F 27.4 °F 30.12 in Calm     78% 0.00 in CLR
TarryTown NY Weather
Compliments of Weather Underground - 1.75 mb